THUNDERSTORM

Not for real navigation. The accuracy of this data is not assured See disclaimer for more information



ICAO NAME COUNTRY WIND Kt GUST Kt VIS m TEMP/DEW C BARO METAR
PABR POST ROGERS MEMORIAL AIRPORT AK United States 3 0 400 -17/-18 30.18 PABR 230923Z AUTO 09003KT 0.25SM R07/2000V3500FT FZFG VV002 M17/M18 A3018 RMK AO2 T11671183 TS
PPIZ Point Lay, Point Lay LRRS Airp AK United States 3 0 400 -11/-12 30.18 PPIZ 230910Z AUTO 12003KT 0.25SM -SN FZFG OVC002 M11/M12 A3018 RMK AO2 P0000 FZRANO TS
PABA Barter Island, Barter Island L AK United States 0 0 800 -13/-16 30.18 PABA 230858Z AUTO 00000KT 0.5SM -SN FZFG OVC002 M13/M16 A3018 RMK AO2 P0000 FZRANO TS
KOGS Ogdensburg International NY United States 0 0 800 0/0 30.07 KOGS 230935Z AUTO 00000KT 0.5SM FG VV005 00/00 A3007 RMK AO2 T00040001 TS
KCSV CROSSVILLE MEMORIAL AIRPORT TN United States 4 0 3200 9/9 29.81 KCSV 230938Z AUTO 08004KT 2SM -TSRA BR OVC002 09/09 A2981 RMK AO2 LTG NOOP S RAE27B32 TSB30 P0006 T0

Show more